sensor_id;sensor_type;location;lat;lon;timestamp;pressure;altitude;pressure_sealevel;temperature;humidity
60337;BME280;46978;50.288;28.624;2023-04-15T00:00:54;98819.73;;;7.10;100.00
60337;BME280;46978;50.288;28.624;2023-04-15T00:01:57;98820.58;;;7.11;100.00
60337;BME280;46978;50.288;28.624;2023-04-15T00:02:59;98821.47;;;7.10;100.00
60337;BME280;46978;50.288;28.624;2023-04-15T00:04:01;98817.17;;;7.09;100.00
60337;BME280;46978;50.288;28.624;2023-04-15T00:05:03;98822.33;;;7.09;100.00
60337;BME280;46978;50.288;28.624;2023-04-15T00:06:05;98818.89;;;7.10;100.00
60337;BME280;46978;50.288;28.624;2023-04-15T00:07:07;98825.75;;;7.09;100.00
60337;BME280;46978;50.288;28.624;2023-04-15T00:08:08;98815.45;;;7.08;100.00
60337;BME280;46978;50.288;28.624;2023-04-15T00:09:10;98818.03;;;7.08;100.00
60337;BME280;46978;50.288;28.624;2023-04-15T00:10:12;98819.77;;;7.07;100.00
60337;BME280;46978;50.288;28.624;2023-04-15T00:11:15;98826.67;;;7.07;100.00
60337;BME280;46978;50.288;28.624;2023-04-15T00:12:16;98819.77;;;7.07;100.00
60337;BME280;46978;50.288;28.624;2023-04-15T00:13:18;98815.48;;;7.06;100.00
60337;BME280;46978;50.288;28.624;2023-04-15T00:14:20;98819.80;;;7.06;100.00
60337;BME280;46978;50.288;28.624;2023-04-15T00:15:21;98820.67;;;7.03;100.00
60337;BME280;46978;50.288;28.624;2023-04-15T00:16:24;98831.87;;;7.04;100.00
60337;BME280;46978;50.288;28.624;2023-04-15T00:17:25;98824.98;;;7.03;100.00
60337;BME280;46978;50.288;28.624;2023-04-15T00:18:27;98824.98;;;7.03;100.00
60337;BME280;46978;50.288;28.624;2023-04-15T00:19:29;98816.39;;;7.04;100.00
60337;BME280;46978;50.288;28.624;2023-04-15T00:20:31;98820.69;;;7.02;100.00
60337;BME280;46978;50.288;28.624;2023-04-15T00:21:33;98825.83;;;7.03;100.00
60337;BME280;46978;50.288;28.624;2023-04-15T00:22:35;98818.98;;;7.02;100.00
60337;BME280;46978;50.288;28.624;2023-04-15T00:23:37;98821.56;;;7.02;100.00
60337;BME280;46978;50.288;28.624;2023-04-15T00:24:39;98820.69;;;7.02;100.00
60337;BME280;46978;50.288;28.624;2023-04-15T00:25:40;98818.11;;;7.02;100.00
60337;BME280;46978;50.288;28.624;2023-04-15T00:26:42;98828.44;;;7.02;100.00
60337;BME280;46978;50.288;28.624;2023-04-15T00:27:44;98825.85;;;7.02;100.00
60337;BME280;46978;50.288;28.624;2023-04-15T00:28:46;98820.69;;;7.02;100.00
60337;BME280;46978;50.288;28.624;2023-04-15T00:29:48;98825.01;;;7.01;100.00
60337;BME280;46978;50.288;28.624;2023-04-15T00:30:50;98825.03;;;6.99;100.00
60337;BME280;46978;50.288;28.624;2023-04-15T00:31:52;98828.47;;;6.98;100.00
60337;BME280;46978;50.288;28.624;2023-04-15T00:32:54;98829.34;;;6.99;100.00
60337;BME280;46978;50.288;28.624;2023-04-15T00:33:55;98822.48;;;6.96;100.00
60337;BME280;46978;50.288;28.624;2023-04-15T00:34:57;98824.24;;;6.94;100.00
60337;BME280;46978;50.288;28.624;2023-04-15T00:35:58;98818.20;;;6.94;100.00
60337;BME280;46978;50.288;28.624;2023-04-15T00:37:00;98820.80;;;6.92;100.00
60337;BME280;46978;50.288;28.624;2023-04-15T00:38:03;98830.30;;;6.90;100.00
60337;BME280;46978;50.288;28.624;2023-04-15T00:39:05;98818.27;;;6.89;100.00
60337;BME280;46978;50.288;28.624;2023-04-15T00:40:11;98823.44;;;6.88;100.00
60337;BME280;46978;50.288;28.624;2023-04-15T00:41:13;98819.17;;;6.87;100.00
60337;BME280;46978;50.288;28.624;2023-04-15T00:42:15;98823.49;;;6.83;100.00
60337;BME280;46978;50.288;28.624;2023-04-15T00:43:18;98826.08;;;6.83;100.00
60337;BME280;46978;50.288;28.624;2023-04-15T00:44:19;98825.25;;;6.81;100.00
60337;BME280;46978;50.288;28.624;2023-04-15T00:45:21;98825.27;;;6.79;100.00
60337;BME280;46978;50.288;28.624;2023-04-15T00:46:25;98820.13;;;6.78;100.00
60337;BME280;46978;50.288;28.624;2023-04-15T00:47:28;98821.86;;;6.77;100.00
60337;BME280;46978;50.288;28.624;2023-04-15T00:48:31;98820.13;;;6.78;100.00
60337;BME280;46978;50.288;28.624;2023-04-15T00:49:32;98811.56;;;6.76;100.00
60337;BME280;46978;50.288;28.624;2023-04-15T00:50:34;98821.90;;;6.74;100.00
60337;BME280;46978;50.288;28.624;2023-04-15T00:51:36;98817.59;;;6.73;100.00
60337;BME280;46978;50.288;28.624;2023-04-15T00:52:38;98823.61;;;6.72;100.00
60337;BME280;46978;50.288;28.624;2023-04-15T00:54:01;98816.77;;;6.71;100.00
60337;BME280;46978;50.288;28.624;2023-04-15T00:55:04;98817.63;;;6.70;100.00
60337;BME280;46978;50.288;28.624;2023-04-15T00:56:06;98823.66;;;6.69;100.00
60337;BME280;46978;50.288;28.624;2023-04-15T00:57:08;98823.67;;;6.68;100.00
60337;BME280;46978;50.288;28.624;2023-04-15T00:58:10;98823.67;;;6.68;100.00
60337;BME280;46978;50.288;28.624;2023-04-15T00:59:13;98830.58;;;6.66;100.00
60337;BME280;46978;50.288;28.624;2023-04-15T01:00:15;98832.31;;;6.65;100.00
60337;BME280;46978;50.288;28.624;2023-04-15T01:01:19;98827.17;;;6.63;100.00
60337;BME280;46978;50.288;28.624;2023-04-15T01:02:21;98820.28;;;6.64;100.00
60337;BME280;46978;50.288;28.624;2023-04-15T01:03:23;98815.14;;;6.62;100.00
60337;BME280;46978;50.288;28.624;2023-04-15T01:04:25;98819.45;;;6.62;100.00
60337;BME280;46978;50.288;28.624;2023-04-15T01:05:27;98824.63;;;6.60;100.00
60337;BME280;46978;50.288;28.624;2023-04-15T01:06:32;98826.33;;;6.60;100.00
60337;BME280;46978;50.288;28.624;2023-04-15T01:07:34;98822.92;;;6.58;100.00
60337;BME280;46978;50.288;28.624;2023-04-15T01:08:35;98816.92;;;6.57;100.00
60337;BME280;46978;50.288;28.624;2023-04-15T01:09:37;98817.78;;;6.56;100.00
60337;BME280;46978;50.288;28.624;2023-04-15T01:10:39;98819.52;;;6.56;100.00
60337;BME280;46978;50.288;28.624;2023-04-15T01:11:41;98824.67;;;6.56;100.00
60337;BME280;46978;50.288;28.624;2023-04-15T01:12:44;98824.67;;;6.56;100.00
60337;BME280;46978;50.288;28.624;2023-04-15T01:13:46;98822.95;;;6.55;100.00
60337;BME280;46978;50.288;28.624;2023-04-15T01:14:48;98826.42;;;6.54;100.00
60337;BME280;46978;50.288;28.624;2023-04-15T01:15:50;98831.58;;;6.54;100.00
60337;BME280;46978;50.288;28.624;2023-04-15T01:16:52;98829.00;;;6.54;100.00
60337;BME280;46978;50.288;28.624;2023-04-15T01:17:54;98833.28;;;6.53;100.00
60337;BME280;46978;50.288;28.624;2023-04-15T01:18:56;98828.14;;;6.52;100.00
60337;BME280;46978;50.288;28.624;2023-04-15T01:19:58;98823.86;;;6.52;100.00
60337;BME280;46978;50.288;28.624;2023-04-15T01:21:00;98834.17;;;6.52;100.00
60337;BME280;46978;50.288;28.624;2023-04-15T01:22:03;98824.72;;;6.51;100.00
60337;BME280;46978;50.288;28.624;2023-04-15T01:23:05;98824.72;;;6.51;100.00
60337;BME280;46978;50.288;28.624;2023-04-15T01:24:08;98826.45;;;6.51;100.00
60337;BME280;46978;50.288;28.624;2023-04-15T01:25:18;98827.30;;;6.51;100.00
60337;BME280;46978;50.288;28.624;2023-04-15T01:26:20;98835.05;;;6.50;100.00
60337;BME280;46978;50.288;28.624;2023-04-15T01:27:22;98832.47;;;6.50;100.00
60337;BME280;46978;50.288;28.624;2023-04-15T01:28:24;98831.61;;;6.51;100.00
60337;BME280;46978;50.288;28.624;2023-04-15T01:29:26;98834.19;;;6.51;100.00
60337;BME280;46978;50.288;28.624;2023-04-15T01:30:28;98835.05;;;6.50;100.00
60337;BME280;46978;50.288;28.624;2023-04-15T01:31:29;98837.63;;;6.50;100.00
60337;BME280;46978;50.288;28.624;2023-04-15T01:32:31;98841.06;;;6.49;100.00
60337;BME280;46978;50.288;28.624;2023-04-15T01:33:33;98843.64;;;6.49;100.00
60337;BME280;46978;50.288;28.624;2023-04-15T01:34:34;98839.38;;;6.48;100.00
60337;BME280;46978;50.288;28.624;2023-04-15T01:35:36;98842.81;;;6.46;100.00
60337;BME280;46978;50.288;28.624;2023-04-15T01:36:38;98837.67;;;6.45;100.00
60337;BME280;46978;50.288;28.624;2023-04-15T01:37:40;98851.41;;;6.45;100.00
60337;BME280;46978;50.288;28.624;2023-04-15T01:38:41;98850.56;;;6.45;100.00
60337;BME280;46978;50.288;28.624;2023-04-15T01:39:45;98852.30;;;6.44;100.00
60337;BME280;46978;50.288;28.624;2023-04-15T01:40:46;98852.30;;;6.44;100.00
60337;BME280;46978;50.288;28.624;2023-04-15T01:41:49;98853.15;;;6.43;100.00
60337;BME280;46978;50.288;28.624;2023-04-15T01:42:51;98851.42;;;6.44;100.00
60337;BME280;46978;50.288;28.624;2023-04-15T01:43:53;98853.15;;;6.43;100.00
60337;BME280;46978;50.288;28.624;2023-04-15T01:44:55;98846.27;;;6.44;100.00
60337;BME280;46978;50.288;28.624;2023-04-15T01:45:57;98850.58;;;6.43;100.00
60337;BME280;46978;50.288;28.624;2023-04-15T01:46:58;98848.00;;;6.43;100.00
60337;BME280;46978;50.288;28.624;2023-04-15T01:48:00;98856.57;;;6.44;100.00
60337;BME280;46978;50.288;28.624;2023-04-15T01:49:02;98850.58;;;6.43;100.00
60337;BME280;46978;50.288;28.624;2023-04-15T01:50:05;98848.00;;;6.43;100.00
60337;BME280;46978;50.288;28.624;2023-04-15T01:51:06;98859.15;;;6.44;100.00
60337;BME280;46978;50.288;28.624;2023-04-15T01:52:08;98854.88;;;6.43;100.00
60337;BME280;46978;50.288;28.624;2023-04-15T01:53:10;98862.62;;;6.43;100.00
60337;BME280;46978;50.288;28.624;2023-04-15T01:54:11;98859.16;;;6.42;100.00
60337;BME280;46978;50.288;28.624;2023-04-15T01:55:13;98862.62;;;6.41;100.00
60337;BME280;46978;50.288;28.624;2023-04-15T01:56:15;98854.90;;;6.41;100.00
60337;BME280;46978;50.288;28.624;2023-04-15T01:57:16;98857.48;;;6.41;100.00
60337;BME280;46978;50.288;28.624;2023-04-15T01:58:18;98858.34;;;6.40;100.00
60337;BME280;46978;50.288;28.624;2023-04-15T01:59:20;98855.76;;;6.40;100.00
60337;BME280;46978;50.288;28.624;2023-04-15T02:00:22;98860.06;;;6.40;100.00
60337;BME280;46978;50.288;28.624;2023-04-15T02:01:24;98848.88;;;6.39;100.00
60337;BME280;46978;50.288;28.624;2023-04-15T02:02:25;98866.06;;;6.40;100.00
60337;BME280;46978;50.288;28.624;2023-04-15T02:03:27;98863.48;;;6.40;100.00
60337;BME280;46978;50.288;28.624;2023-04-15T02:04:29;98860.92;;;6.39;100.00
60337;BME280;46978;50.288;28.624;2023-04-15T02:05:31;98858.34;;;6.39;100.00
60337;BME280;46978;50.288;28.624;2023-04-15T02:06:33;98859.19;;;6.39;100.00
60337;BME280;46978;50.288;28.624;2023-04-15T02:07:34;98863.50;;;6.39;100.00
60337;BME280;46978;50.288;28.624;2023-04-15T02:08:36;98865.22;;;6.40;100.00
60337;BME280;46978;50.288;28.624;2023-04-15T02:09:38;98861.75;;;6.41;100.00
60337;BME280;46978;50.288;28.624;2023-04-15T02:10:39;98866.06;;;6.40;100.00
60337;BME280;46978;50.288;28.624;2023-04-15T02:11:41;98868.64;;;6.40;100.00
60337;BME280;46978;50.288;28.624;2023-04-15T02:12:44;98865.23;;;6.38;100.00
60337;BME280;46978;50.288;28.624;2023-04-15T02:13:45;98867.81;;;6.38;100.00
60337;BME280;46978;50.288;28.624;2023-04-15T02:14:47;98868.66;;;6.39;100.00
60337;BME280;46978;50.288;28.624;2023-04-15T02:15:49;98864.34;;;6.39;100.00
60337;BME280;46978;50.288;28.624;2023-04-15T02:16:51;98860.92;;;6.39;100.00
60337;BME280;46978;50.288;28.624;2023-04-15T02:17:52;98864.36;;;6.38;100.00
60337;BME280;46978;50.288;28.624;2023-04-15T02:18:54;98863.52;;;6.37;100.00
60337;BME280;46978;50.288;28.624;2023-04-15T02:19:56;98857.52;;;6.37;100.00
60337;BME280;46978;50.288;28.624;2023-04-15T02:20:58;98865.25;;;6.37;100.00
60337;BME280;46978;50.288;28.624;2023-04-15T02:21:59;98867.83;;;6.37;100.00
60337;BME280;46978;50.288;28.624;2023-04-15T02:23:01;98855.80;;;6.36;100.00
60337;BME280;46978;50.288;28.624;2023-04-15T02:24:03;98866.11;;;6.36;100.00
60337;BME280;46978;50.288;28.624;2023-04-15T02:25:06;98860.09;;;6.37;100.00
60337;BME280;46978;50.288;28.624;2023-04-15T02:26:09;98853.22;;;6.36;100.00
60337;BME280;46978;50.288;28.624;2023-04-15T02:27:15;98859.22;;;6.36;100.00
60337;BME280;46978;50.288;28.624;2023-04-15T02:28:17;98861.80;;;6.36;100.00
60337;BME280;46978;50.288;28.624;2023-04-15T02:29:19;98860.09;;;6.37;100.00
60337;BME280;46978;50.288;28.624;2023-04-15T02:30:21;98856.66;;;6.35;100.00
60337;BME280;46978;50.288;28.624;2023-04-15T02:31:23;98848.08;;;6.34;100.00
60337;BME280;46978;50.288;28.624;2023-04-15T02:32:25;98853.23;;;6.34;100.00
60337;BME280;46978;50.288;28.624;2023-04-15T02:33:27;98858.41;;;6.33;100.00
60337;BME280;46978;50.288;28.624;2023-04-15T02:34:29;98868.71;;;6.33;99.46
60337;BME280;46978;50.288;28.624;2023-04-15T02:35:30;98852.42;;;6.31;99.62
60337;BME280;46978;50.288;28.624;2023-04-15T02:36:32;98860.16;;;6.31;99.39
60337;BME280;46978;50.288;28.624;2023-04-15T02:37:37;98851.55;;;6.30;99.59
60337;BME280;46978;50.288;28.624;2023-04-15T02:38:38;98852.42;;;6.31;99.70
60337;BME280;46978;50.288;28.624;2023-04-15T02:39:40;98848.98;;;6.28;99.66
60337;BME280;46978;50.288;28.624;2023-04-15T02:40:42;98849.87;;;6.27;99.97
60337;BME280;46978;50.288;28.624;2023-04-15T02:41:44;98853.31;;;6.26;100.00
60337;BME280;46978;50.288;28.624;2023-04-15T02:42:46;98857.62;;;6.26;99.97
60337;BME280;46978;50.288;28.624;2023-04-15T02:43:47;98855.05;;;6.24;99.94
60337;BME280;46978;50.288;28.624;2023-04-15T02:44:49;98857.62;;;6.26;99.65
60337;BME280;46978;50.288;28.624;2023-04-15T02:45:50;98855.05;;;6.24;99.83
60337;BME280;46978;50.288;28.624;2023-04-15T02:46:52;98848.18;;;6.23;99.94
60337;BME280;46978;50.288;28.624;2023-04-15T02:47:54;98862.80;;;6.23;99.88
60337;BME280;46978;50.288;28.624;2023-04-15T02:48:57;98855.91;;;6.23;99.70
60337;BME280;46978;50.288;28.624;2023-04-15T02:49:59;98855.92;;;6.22;99.80
60337;BME280;46978;50.288;28.624;2023-04-15T02:51:18;98861.93;;;6.21;99.37
60337;BME280;46978;50.288;28.624;2023-04-15T02:52:20;98849.94;;;6.20;99.43
60337;BME280;46978;50.288;28.624;2023-04-15T02:53:22;98861.09;;;6.20;99.48
60337;BME280;46978;50.288;28.624;2023-04-15T02:54:23;98863.66;;;6.20;99.12
60337;BME280;46978;50.288;28.624;2023-04-15T02:55:25;98860.25;;;6.20;99.43
60337;BME280;46978;50.288;28.624;2023-04-15T02:56:27;98855.09;;;6.20;98.86
60337;BME280;46978;50.288;28.624;2023-04-15T02:57:29;98858.52;;;6.19;98.53
60337;BME280;46978;50.288;28.624;2023-04-15T02:58:30;98857.68;;;6.18;98.89
60337;BME280;46978;50.288;28.624;2023-04-15T02:59:32;98865.41;;;6.18;99.14
60337;BME280;46978;50.288;28.624;2023-04-15T03:00:34;98859.39;;;6.16;99.19
60337;BME280;46978;50.288;28.624;2023-04-15T03:01:36;98863.69;;;6.17;98.71
60337;BME280;46978;50.288;28.624;2023-04-15T03:02:38;98861.97;;;6.16;98.84
60337;BME280;46978;50.288;28.624;2023-04-15T03:03:39;98868.86;;;6.16;99.06
60337;BME280;46978;50.288;28.624;2023-04-15T03:04:41;98862.88;;;6.14;99.25
60337;BME280;46978;50.288;28.624;2023-04-15T03:05:43;98864.56;;;6.15;99.37
60337;BME280;46978;50.288;28.624;2023-04-15T03:06:45;98866.30;;;6.14;99.38
60337;BME280;46978;50.288;28.624;2023-04-15T03:07:46;98868.88;;;6.14;99.52
60337;BME280;46978;50.288;28.624;2023-04-15T03:08:48;98864.57;;;6.13;99.43
60337;BME280;46978;50.288;28.624;2023-04-15T03:09:50;98861.16;;;6.13;99.26
60337;BME280;46978;50.288;28.624;2023-04-15T03:10:52;98858.58;;;6.13;99.47
60337;BME280;46978;50.288;28.624;2023-04-15T03:11:53;98860.31;;;6.12;99.68
60337;BME280;46978;50.288;28.624;2023-04-15T03:12:55;98866.31;;;6.11;99.08
60337;BME280;46978;50.288;28.624;2023-04-15T03:13:57;98869.75;;;6.10;98.79
60337;BME280;46978;50.288;28.624;2023-04-15T03:14:58;98869.77;;;6.08;98.61
60337;BME280;46978;50.288;28.624;2023-04-15T03:16:00;98864.63;;;6.07;98.58
60337;BME280;46978;50.288;28.624;2023-04-15T03:17:02;98874.07;;;6.08;98.48
60337;BME280;46978;50.288;28.624;2023-04-15T03:18:04;98875.81;;;6.06;98.39
60337;BME280;46978;50.288;28.624;2023-04-15T03:19:05;98874.92;;;6.07;98.33
60337;BME280;46978;50.288;28.624;2023-04-15T03:20:07;98873.22;;;6.07;98.55
60337;BME280;46978;50.288;28.624;2023-04-15T03:21:09;98870.66;;;6.06;98.71
60337;BME280;46978;50.288;28.624;2023-04-15T03:22:11;98880.08;;;6.07;98.80
60337;BME280;46978;50.288;28.624;2023-04-15T03:23:12;98874.94;;;6.05;98.86
60337;BME280;46978;50.288;28.624;2023-04-15T03:24:34;98886.12;;;6.06;98.52
60337;BME280;46978;50.288;28.624;2023-04-15T03:25:36;98886.13;;;6.04;98.83
60337;BME280;46978;50.288;28.624;2023-04-15T03:26:38;98879.24;;;6.05;98.65
60337;BME280;46978;50.288;28.624;2023-04-15T03:27:40;98879.24;;;6.05;98.60
60337;BME280;46978;50.288;28.624;2023-04-15T03:28:42;98882.67;;;6.04;98.32
60337;BME280;46978;50.288;28.624;2023-04-15T03:29:43;98881.83;;;6.03;97.93
60337;BME280;46978;50.288;28.624;2023-04-15T03:30:45;98882.67;;;6.04;98.08
60337;BME280;46978;50.288;28.624;2023-04-15T03:31:47;98883.56;;;6.03;98.05
60337;BME280;46978;50.288;28.624;2023-04-15T03:32:48;98882.69;;;6.02;97.90
60337;BME280;46978;50.288;28.624;2023-04-15T03:33:50;98883.58;;;6.01;97.78
60337;BME280;46978;50.288;28.624;2023-04-15T03:34:52;98880.13;;;6.01;98.01
60337;BME280;46978;50.288;28.624;2023-04-15T03:35:53;98879.28;;;6.00;98.17
60337;BME280;46978;50.288;28.624;2023-04-15T03:36:55;98887.84;;;6.01;97.95
60337;BME280;46978;50.288;28.624;2023-04-15T03:37:57;98888.73;;;6.00;97.76
60337;BME280;46978;50.288;28.624;2023-04-15T03:38:58;98880.14;;;5.98;98.02
60337;BME280;46978;50.288;28.624;2023-04-15T03:41:23;98881.86;;;5.99;98.09
60337;BME280;46978;50.288;28.624;2023-04-15T03:42:25;98877.56;;;5.99;98.18
60337;BME280;46978;50.288;28.624;2023-04-15T03:43:27;98881.86;;;6.00;98.22
60337;BME280;46978;50.288;28.624;2023-04-15T03:44:29;98877.57;;;5.98;98.05
60337;BME280;46978;50.288;28.624;2023-04-15T03:45:30;98877.57;;;5.98;98.05
60337;BME280;46978;50.288;28.624;2023-04-15T03:46:32;98882.71;;;5.99;97.69
60337;BME280;46978;50.288;28.624;2023-04-15T03:47:34;98877.56;;;5.99;97.93
60337;BME280;46978;50.288;28.624;2023-04-15T03:48:35;98878.45;;;5.98;98.04
60337;BME280;46978;50.288;28.624;2023-04-15T03:49:37;98880.14;;;5.98;97.79
60337;BME280;46978;50.288;28.624;2023-04-15T03:50:39;98880.13;;;5.99;97.96
60337;BME280;46978;50.288;28.624;2023-04-15T03:51:40;98876.72;;;5.99;98.03
60337;BME280;46978;50.288;28.624;2023-04-15T03:52:43;98877.57;;;5.98;97.95
60337;BME280;46978;50.288;28.624;2023-04-15T03:53:45;98887.85;;;5.96;97.93
60337;BME280;46978;50.288;28.624;2023-04-15T03:54:46;98885.30;;;5.98;98.01
60337;BME280;46978;50.288;28.624;2023-04-15T03:55:48;98889.59;;;5.99;98.13
60337;BME280;46978;50.288;28.624;2023-04-15T03:56:50;98887.87;;;5.98;97.95
60337;BME280;46978;50.288;28.624;2023-04-15T03:57:51;98886.17;;;5.98;98.18
60337;BME280;46978;50.288;28.624;2023-04-15T03:58:53;98881.02;;;5.98;98.32
60337;BME280;46978;50.288;28.624;2023-04-15T03:59:55;98889.59;;;5.99;98.24
60337;BME280;46978;50.288;28.624;2023-04-15T04:01:16;98890.45;;;5.98;98.19
60337;BME280;46978;50.288;28.624;2023-04-15T04:02:18;98883.59;;;5.98;98.25
60337;BME280;46978;50.288;28.624;2023-04-15T04:03:19;98887.87;;;5.98;98.57
60337;BME280;46978;50.288;28.624;2023-04-15T04:04:21;98889.59;;;5.99;98.66
60337;BME280;46978;50.288;28.624;2023-04-15T04:05:23;98886.17;;;5.98;98.33
60337;BME280;46978;50.288;28.624;2023-04-15T04:06:25;98888.73;;;6.00;98.34
60337;BME280;46978;50.288;28.624;2023-04-15T04:07:28;98888.73;;;6.00;98.28
60337;BME280;46978;50.288;28.624;2023-04-15T04:08:30;98893.88;;;6.01;98.32
60337;BME280;46978;50.288;28.624;2023-04-15T04:09:32;98892.16;;;6.00;98.42
60337;BME280;46978;50.288;28.624;2023-04-15T04:10:34;98893.00;;;6.01;98.29
60337;BME280;46978;50.288;28.624;2023-04-15T04:11:38;98894.73;;;6.00;98.20
60337;BME280;46978;50.288;28.624;2023-04-15T04:12:39;98894.73;;;6.00;98.37
60337;BME280;46978;50.288;28.624;2023-04-15T04:13:41;98891.33;;;5.97;98.23
60337;BME280;46978;50.288;28.624;2023-04-15T04:14:42;98896.45;;;6.01;98.41
60337;BME280;46978;50.288;28.624;2023-04-15T04:15:44;98901.60;;;6.01;98.34
60337;BME280;46978;50.288;28.624;2023-04-15T04:16:46;98897.30;;;6.02;98.33
60337;BME280;46978;50.288;28.624;2023-04-15T04:17:47;98905.02;;;6.02;98.34
60337;BME280;46978;50.288;28.624;2023-04-15T04:18:49;98911.02;;;6.02;98.65
60337;BME280;46978;50.288;28.624;2023-04-15T04:19:51;98900.72;;;6.02;97.93
60337;BME280;46978;50.288;28.624;2023-04-15T04:20:53;98910.17;;;6.02;97.74
60337;BME280;46978;50.288;28.624;2023-04-15T04:21:55;98895.58;;;6.01;97.90
60337;BME280;46978;50.288;28.624;2023-04-15T04:22:57;98907.61;;;6.00;98.10
60337;BME280;46978;50.288;28.624;2023-04-15T04:23:59;98911.04;;;5.99;98.06
60337;BME280;46978;50.288;28.624;2023-04-15T04:25:00;98905.03;;;6.00;97.93
60337;BME280;46978;50.288;28.624;2023-04-15T04:26:02;98907.61;;;6.00;98.05
60337;BME280;46978;50.288;28.624;2023-04-15T04:27:05;98908.45;;;6.01;98.04
60337;BME280;46978;50.288;28.624;2023-04-15T04:28:07;98905.88;;;6.01;97.77
60337;BME280;46978;50.288;28.624;2023-04-15T04:29:08;98915.33;;;6.02;97.88
60337;BME280;46978;50.288;28.624;2023-04-15T04:30:11;98909.31;;;6.03;97.90
60337;BME280;46978;50.288;28.624;2023-04-15T04:31:13;98914.45;;;6.04;97.86
60337;BME280;46978;50.288;28.624;2023-04-15T04:32:15;98907.58;;;6.05;97.73
60337;BME280;46978;50.288;28.624;2023-04-15T04:33:16;98909.30;;;6.04;97.82
60337;BME280;46978;50.288;28.624;2023-04-15T04:34:18;98911.00;;;6.05;97.76
60337;BME280;46978;50.288;28.624;2023-04-15T04:35:20;98911.00;;;6.05;97.71
60337;BME280;46978;50.288;28.624;2023-04-15T04:36:22;98904.98;;;6.06;97.93
60337;BME280;46978;50.288;28.624;2023-04-15T04:37:23;98915.28;;;6.08;98.12
60337;BME280;46978;50.288;28.624;2023-04-15T04:38:25;98902.41;;;6.08;98.23
60337;BME280;46978;50.288;28.624;2023-04-15T04:39:27;98913.55;;;6.08;98.39
60337;BME280;46978;50.288;28.624;2023-04-15T04:40:29;98917.00;;;6.09;98.56
60337;BME280;46978;50.288;28.624;2023-04-15T04:41:30;98917.84;;;6.09;98.46
60337;BME280;46978;50.288;28.624;2023-04-15T04:42:32;98907.55;;;6.09;98.46
60337;BME280;46978;50.288;28.624;2023-04-15T04:43:34;98914.41;;;6.10;98.53
60337;BME280;46978;50.288;28.624;2023-04-15T04:44:36;98908.39;;;6.10;98.78
60337;BME280;46978;50.288;28.624;2023-04-15T04:45:37;98910.11;;;6.11;98.74
60337;BME280;46978;50.288;28.624;2023-04-15T04:46:39;98909.27;;;6.10;98.93
60337;BME280;46978;50.288;28.624;2023-04-15T04:47:41;98907.55;;;6.09;98.80
60337;BME280;46978;50.288;28.624;2023-04-15T04:48:42;98909.27;;;6.09;98.81
60337;BME280;46978;50.288;28.624;2023-04-15T04:49:44;98910.97;;;6.10;98.90
60337;BME280;46978;50.288;28.624;2023-04-15T04:50:46;98910.97;;;6.10;98.90
60337;BME280;46978;50.288;28.624;2023-04-15T04:51:48;98902.38;;;6.11;99.21
60337;BME280;46978;50.288;28.624;2023-04-15T04:52:49;98915.25;;;6.13;98.83
60337;BME280;46978;50.288;28.624;2023-04-15T04:53:51;98913.52;;;6.13;98.90
60337;BME280;46978;50.288;28.624;2023-04-15T04:54:53;98910.94;;;6.13;98.69
60337;BME280;46978;50.288;28.624;2023-04-15T04:55:54;98910.09;;;6.13;98.57
60337;BME280;46978;50.288;28.624;2023-04-15T04:56:56;98913.52;;;6.13;98.70
60337;BME280;46978;50.288;28.624;2023-04-15T04:57:58;98914.39;;;6.14;98.70
60337;BME280;46978;50.288;28.624;2023-04-15T04:58:59;98908.36;;;6.13;98.59
60337;BME280;46978;50.288;28.624;2023-04-15T05:00:05;98905.78;;;6.13;98.40
60337;BME280;46978;50.288;28.624;2023-04-15T05:01:07;98914.41;;;6.12;98.49
60337;BME280;46978;50.288;28.624;2023-04-15T05:02:08;98910.95;;;6.12;97.99
60337;BME280;46978;50.288;28.624;2023-04-15T05:03:10;98905.83;;;6.08;97.54
60337;BME280;46978;50.288;28.624;2023-04-15T05:04:12;98917.86;;;6.08;97.95
60337;BME280;46978;50.288;28.624;2023-04-15T05:05:33;98907.55;;;6.08;98.24
60337;BME280;46978;50.288;28.624;2023-04-15T05:06:35;98910.98;;;6.07;98.45
60337;BME280;46978;50.288;28.624;2023-04-15T05:07:37;98901.57;;;6.06;98.46
60337;BME280;46978;50.288;28.624;2023-04-15T05:08:38;98913.56;;;6.07;98.59
60337;BME280;46978;50.288;28.624;2023-04-15T05:09:40;98908.41;;;6.07;98.24
60337;BME280;46978;50.288;28.624;2023-04-15T05:10:42;98916.16;;;6.04;98.34
60337;BME280;46978;50.288;28.624;2023-04-15T05:11:43;98920.47;;;6.03;98.56
60337;BME280;46978;50.288;28.624;2023-04-15T05:12:45;98911.02;;;6.02;98.72
60337;BME280;46978;50.288;28.624;2023-04-15T05:13:47;98910.19;;;6.00;98.76
60337;BME280;46978;50.288;28.624;2023-04-15T05:14:48;98906.77;;;6.00;99.00
60337;BME280;46978;50.288;28.624;2023-04-15T05:15:50;98909.34;;;6.00;99.12
60337;BME280;46978;50.288;28.624;2023-04-15T05:16:52;98909.35;;;5.98;99.20
60337;BME280;46978;50.288;28.624;2023-04-15T05:17:53;98906.78;;;5.97;99.12
60337;BME280;46978;50.288;28.624;2023-04-15T05:18:55;98913.63;;;5.98;99.02
60337;BME280;46978;50.288;28.624;2023-04-15T05:21:10;98907.59;;;6.03;99.05
60337;BME280;46978;50.288;28.624;2023-04-15T05:22:12;98910.20;;;5.92;99.11
60337;BME280;46978;50.288;28.624;2023-04-15T05:23:14;98908.48;;;5.91;99.25
60337;BME280;46978;50.288;28.624;2023-04-15T05:24:16;98906.80;;;5.89;99.62
60337;BME280;46978;50.288;28.624;2023-04-15T05:25:18;98907.66;;;5.88;99.96
60337;BME280;46978;50.288;28.624;2023-04-15T05:26:20;98909.39;;;5.87;100.00
60337;BME280;46978;50.288;28.624;2023-04-15T05:27:21;98913.67;;;5.85;100.00
60337;BME280;46978;50.288;28.624;2023-04-15T05:28:23;98910.27;;;5.83;100.00
60337;BME280;46978;50.288;28.624;2023-04-15T05:29:25;98909.42;;;5.83;100.00
60337;BME280;46978;50.288;28.624;2023-04-15T05:30:26;98907.70;;;5.80;100.00